Aérodrome :
LOGIN :

S'inscrire | Disclaimer

   EN    FR    IT 

 










Légende :    VFR   VFR Marginal   IFR   IFR Intensif   IFR Très Intensif
Visi : 
Plafond : 
>= 8 km
>= 3000ft
5 à 8 km
1000 à 3000 ft
1500m à 5 km
500 à 1000 ft
800 à 1500m
200 à 500 ft
< 800m
< 200 ft
Symboles :   Orages  Brouillard  Fortes neiges  Fortes précipitations  Vent > 20 kt
SIGMETs :   Divers  Orages  Givrage  Turbulence  Onde Orograph.  Cendres Volcan.






- Altitude de l'aérodrome : 16 ft
- Code IATA : EAS


LESO - San Sebastian Fuenterrabia

DERNIER METAR :
  • 230800Z VRB01KT CAVOK 22/17 Q1023

METARs EXPIRÉS :
  • 230730Z VRB01KT CAVOK 21/17 Q1023
  • 230700Z 15003KT CAVOK 19/17 Q1023
  • 230630Z VRB02KT CAVOK 18/16 Q1023
  • 230600Z 17003KT 140V210 CAVOK 17/16 Q1023
  • 230530Z 17003KT 140V220 CAVOK 17/16 Q1023
  • 230500Z 19003KT 140V220 CAVOK 16/16 Q1023
  • 230430Z 17003KT 140V200 CAVOK 17/16 Q1022
  • 230400Z 15003KT 120V190 CAVOK 17/16 Q1022
  • 230330Z AUTO 15003KT CAVOK 17/16 Q1022

TAF TAF LESO
Valide du 23 à 06h jusqu'au 24 à 06h UTC


230500Z 2306/2406 19004KT CAVOK TX26/2312Z TN16/2306Z
PROB30 2309/2318 01010KT
PROB40
TEMPO 2321/2406 BKN010



MET'MAP, la Météo Aéronautique d'un coup d'oeil ! - Copyright ORBIFLY Décembre 2007 - Disclaimer

ORBIFLY MET'MAP TEAM :

Programmation & Développement : Alexandra Zaïnal
Sur une idée originale de : Baudouin d'Aumeries
Soutien technique & logistique : Manuel Goepfert
Assistance : Marc-Olivier Méhu




SOURCES & CREDITS :

   NOAA